sensor_id;sensor_type;location;lat;lon;timestamp;P1;durP1;ratioP1;P2;durP2;ratioP2
82230;SDS011;71832;45.138;9.816;2023-08-07T00:01:05;1.20;;;1.10;;
82230;SDS011;71832;45.138;9.816;2023-08-07T00:03:33;1.30;;;0.90;;
82230;SDS011;71832;45.138;9.816;2023-08-07T00:06:02;1.50;;;1.20;;
82230;SDS011;71832;45.138;9.816;2023-08-07T00:08:31;5.28;;;1.00;;
82230;SDS011;71832;45.138;9.816;2023-08-07T00:11:09;1.50;;;1.15;;
82230;SDS011;71832;45.138;9.816;2023-08-07T00:13:37;2.35;;;1.10;;
82230;SDS011;71832;45.138;9.816;2023-08-07T00:16:05;3.63;;;1.20;;
82230;SDS011;71832;45.138;9.816;2023-08-07T00:18:33;1.05;;;1.02;;
82230;SDS011;71832;45.138;9.816;2023-08-07T00:21:01;3.95;;;1.20;;
82230;SDS011;71832;45.138;9.816;2023-08-07T00:23:29;1.58;;;1.20;;
82230;SDS011;71832;45.138;9.816;2023-08-07T00:25:58;1.55;;;1.40;;
82230;SDS011;71832;45.138;9.816;2023-08-07T00:28:27;1.30;;;1.20;;
82230;SDS011;71832;45.138;9.816;2023-08-07T00:30:56;2.70;;;1.40;;
82230;SDS011;71832;45.138;9.816;2023-08-07T00:33:25;3.60;;;1.45;;
82230;SDS011;71832;45.138;9.816;2023-08-07T00:35:53;1.52;;;1.30;;
82230;SDS011;71832;45.138;9.816;2023-08-07T00:38:21;2.40;;;1.20;;
82230;SDS011;71832;45.138;9.816;2023-08-07T00:40:49;7.35;;;1.50;;
82230;SDS011;71832;45.138;9.816;2023-08-07T00:43:17;1.83;;;1.50;;
82230;SDS011;71832;45.138;9.816;2023-08-07T00:45:45;2.47;;;1.40;;
82230;SDS011;71832;45.138;9.816;2023-08-07T00:48:15;1.30;;;1.17;;
82230;SDS011;71832;45.138;9.816;2023-08-07T00:50:44;2.25;;;1.30;;
82230;SDS011;71832;45.138;9.816;2023-08-07T00:53:12;2.00;;;1.45;;
82230;SDS011;71832;45.138;9.816;2023-08-07T00:55:42;3.55;;;1.48;;
82230;SDS011;71832;45.138;9.816;2023-08-07T00:58:11;1.73;;;1.48;;
82230;SDS011;71832;45.138;9.816;2023-08-07T01:00:40;1.27;;;1.17;;
82230;SDS011;71832;45.138;9.816;2023-08-07T01:03:09;1.38;;;1.17;;
82230;SDS011;71832;45.138;9.816;2023-08-07T01:05:40;1.90;;;1.40;;
82230;SDS011;71832;45.138;9.816;2023-08-07T01:08:08;1.38;;;1.05;;
82230;SDS011;71832;45.138;9.816;2023-08-07T01:10:44;1.70;;;1.30;;
82230;SDS011;71832;45.138;9.816;2023-08-07T01:13:40;2.03;;;1.42;;
82230;SDS011;71832;45.138;9.816;2023-08-07T01:16:13;1.83;;;1.42;;
82230;SDS011;71832;45.138;9.816;2023-08-07T01:18:45;2.13;;;1.60;;
82230;SDS011;71832;45.138;9.816;2023-08-07T01:21:18;1.42;;;1.30;;
82230;SDS011;71832;45.138;9.816;2023-08-07T01:23:47;2.42;;;1.50;;
82230;SDS011;71832;45.138;9.816;2023-08-07T01:26:18;2.63;;;1.40;;
82230;SDS011;71832;45.138;9.816;2023-08-07T01:28:50;2.30;;;1.40;;
82230;SDS011;71832;45.138;9.816;2023-08-07T01:31:22;1.90;;;1.70;;
82230;SDS011;71832;45.138;9.816;2023-08-07T01:36:26;2.50;;;1.90;;
82230;SDS011;71832;45.138;9.816;2023-08-07T01:38:56;2.58;;;1.90;;
82230;SDS011;71832;45.138;9.816;2023-08-07T01:41:27;2.33;;;1.48;;
82230;SDS011;71832;45.138;9.816;2023-08-07T01:43:55;1.95;;;1.70;;
82230;SDS011;71832;45.138;9.816;2023-08-07T01:46:25;2.03;;;1.83;;
82230;SDS011;71832;45.138;9.816;2023-08-07T01:48:52;2.03;;;1.40;;
82230;SDS011;71832;45.138;9.816;2023-08-07T01:51:21;1.95;;;1.40;;
82230;SDS011;71832;45.138;9.816;2023-08-07T01:53:50;1.60;;;1.30;;
82230;SDS011;71832;45.138;9.816;2023-08-07T01:56:18;2.83;;;1.27;;
82230;SDS011;71832;45.138;9.816;2023-08-07T01:58:46;3.50;;;2.35;;
82230;SDS011;71832;45.138;9.816;2023-08-07T02:01:14;1.63;;;1.10;;
82230;SDS011;71832;45.138;9.816;2023-08-07T02:03:41;1.10;;;0.95;;
82230;SDS011;71832;45.138;9.816;2023-08-07T02:06:09;1.35;;;0.80;;
82230;SDS011;71832;45.138;9.816;2023-08-07T02:08:38;1.35;;;0.80;;
82230;SDS011;71832;45.138;9.816;2023-08-07T02:11:05;0.55;;;0.55;;
82230;SDS011;71832;45.138;9.816;2023-08-07T02:13:33;0.55;;;0.50;;
82230;SDS011;71832;45.138;9.816;2023-08-07T02:16:00;2.47;;;0.63;;
82230;SDS011;71832;45.138;9.816;2023-08-07T02:18:29;1.73;;;0.70;;
82230;SDS011;71832;45.138;9.816;2023-08-07T02:20:58;1.67;;;0.70;;
82230;SDS011;71832;45.138;9.816;2023-08-07T02:23:26;1.83;;;0.90;;
82230;SDS011;71832;45.138;9.816;2023-08-07T02:25:54;1.40;;;0.68;;
82230;SDS011;71832;45.138;9.816;2023-08-07T02:28:23;0.98;;;0.60;;
82230;SDS011;71832;45.138;9.816;2023-08-07T02:30:51;0.70;;;0.47;;
82230;SDS011;71832;45.138;9.816;2023-08-07T02:33:20;0.57;;;0.57;;
82230;SDS011;71832;45.138;9.816;2023-08-07T02:35:47;0.82;;;0.65;;
82230;SDS011;71832;45.138;9.816;2023-08-07T02:38:17;1.42;;;0.70;;
82230;SDS011;71832;45.138;9.816;2023-08-07T02:40:45;2.30;;;0.60;;
82230;SDS011;71832;45.138;9.816;2023-08-07T02:43:14;0.52;;;0.52;;
82230;SDS011;71832;45.138;9.816;2023-08-07T02:45:43;0.50;;;0.50;;
82230;SDS011;71832;45.138;9.816;2023-08-07T02:48:11;0.35;;;0.35;;
82230;SDS011;71832;45.138;9.816;2023-08-07T02:50:40;0.82;;;0.40;;
82230;SDS011;71832;45.138;9.816;2023-08-07T02:53:09;0.60;;;0.60;;
82230;SDS011;71832;45.138;9.816;2023-08-07T02:55:38;1.35;;;0.50;;
82230;SDS011;71832;45.138;9.816;2023-08-07T02:58:05;0.52;;;0.40;;
82230;SDS011;71832;45.138;9.816;2023-08-07T03:00:34;1.33;;;0.70;;
82230;SDS011;71832;45.138;9.816;2023-08-07T03:03:03;0.65;;;0.50;;
82230;SDS011;71832;45.138;9.816;2023-08-07T03:05:32;0.50;;;0.50;;
82230;SDS011;71832;45.138;9.816;2023-08-07T03:08:00;0.50;;;0.50;;
82230;SDS011;71832;45.138;9.816;2023-08-07T03:10:29;1.27;;;1.00;;
82230;SDS011;71832;45.138;9.816;2023-08-07T03:12:57;0.70;;;0.60;;
82230;SDS011;71832;45.138;9.816;2023-08-07T03:15:26;0.60;;;0.52;;
82230;SDS011;71832;45.138;9.816;2023-08-07T03:17:55;0.77;;;0.60;;
82230;SDS011;71832;45.138;9.816;2023-08-07T03:20:24;0.50;;;0.50;;
82230;SDS011;71832;45.138;9.816;2023-08-07T03:22:52;0.75;;;0.60;;
82230;SDS011;71832;45.138;9.816;2023-08-07T03:25:20;1.35;;;0.70;;
82230;SDS011;71832;45.138;9.816;2023-08-07T03:27:48;0.88;;;0.60;;
82230;SDS011;71832;45.138;9.816;2023-08-07T03:30:17;0.98;;;0.75;;
82230;SDS011;71832;45.138;9.816;2023-08-07T03:32:46;0.80;;;0.47;;
82230;SDS011;71832;45.138;9.816;2023-08-07T03:35:15;1.70;;;0.57;;
82230;SDS011;71832;45.138;9.816;2023-08-07T03:37:44;1.58;;;0.70;;
82230;SDS011;71832;45.138;9.816;2023-08-07T03:40:12;0.88;;;0.60;;
82230;SDS011;71832;45.138;9.816;2023-08-07T03:42:41;2.72;;;0.90;;
82230;SDS011;71832;45.138;9.816;2023-08-07T03:45:10;0.50;;;0.50;;
82230;SDS011;71832;45.138;9.816;2023-08-07T03:47:38;1.10;;;0.70;;
82230;SDS011;71832;45.138;9.816;2023-08-07T03:50:07;1.55;;;0.60;;
82230;SDS011;71832;45.138;9.816;2023-08-07T03:52:35;0.70;;;0.45;;
82230;SDS011;71832;45.138;9.816;2023-08-07T03:55:03;1.25;;;0.90;;
82230;SDS011;71832;45.138;9.816;2023-08-07T03:57:32;0.73;;;0.60;;
82230;SDS011;71832;45.138;9.816;2023-08-07T04:00:00;0.88;;;0.60;;
82230;SDS011;71832;45.138;9.816;2023-08-07T04:02:28;0.60;;;0.50;;
82230;SDS011;71832;45.138;9.816;2023-08-07T04:04:56;0.95;;;0.60;;
82230;SDS011;71832;45.138;9.816;2023-08-07T04:07:25;0.73;;;0.73;;
82230;SDS011;71832;45.138;9.816;2023-08-07T04:09:53;0.57;;;0.55;;
82230;SDS011;71832;45.138;9.816;2023-08-07T04:12:22;0.63;;;0.50;;
82230;SDS011;71832;45.138;9.816;2023-08-07T04:14:50;1.45;;;0.50;;
82230;SDS011;71832;45.138;9.816;2023-08-07T04:17:17;1.48;;;0.63;;
82230;SDS011;71832;45.138;9.816;2023-08-07T04:19:45;2.50;;;0.90;;
82230;SDS011;71832;45.138;9.816;2023-08-07T04:22:14;1.00;;;0.90;;
82230;SDS011;71832;45.138;9.816;2023-08-07T04:24:43;0.93;;;0.68;;
82230;SDS011;71832;45.138;9.816;2023-08-07T04:27:11;0.98;;;0.70;;
82230;SDS011;71832;45.138;9.816;2023-08-07T04:29:40;1.30;;;0.55;;
82230;SDS011;71832;45.138;9.816;2023-08-07T04:32:07;0.68;;;0.60;;
82230;SDS011;71832;45.138;9.816;2023-08-07T04:34:35;3.20;;;0.70;;
82230;SDS011;71832;45.138;9.816;2023-08-07T04:37:02;0.63;;;0.60;;
82230;SDS011;71832;45.138;9.816;2023-08-07T04:39:31;0.50;;;0.50;;
82230;SDS011;71832;45.138;9.816;2023-08-07T04:41:59;1.40;;;0.60;;
82230;SDS011;71832;45.138;9.816;2023-08-07T04:44:27;2.65;;;0.60;;
82230;SDS011;71832;45.138;9.816;2023-08-07T04:46:55;1.10;;;0.70;;
82230;SDS011;71832;45.138;9.816;2023-08-07T04:49:22;0.68;;;0.50;;
82230;SDS011;71832;45.138;9.816;2023-08-07T04:51:50;1.05;;;0.60;;
82230;SDS011;71832;45.138;9.816;2023-08-07T04:54:18;0.75;;;0.63;;
82230;SDS011;71832;45.138;9.816;2023-08-07T04:56:45;1.13;;;0.80;;
82230;SDS011;71832;45.138;9.816;2023-08-07T04:59:13;1.58;;;0.70;;
82230;SDS011;71832;45.138;9.816;2023-08-07T05:01:41;0.57;;;0.57;;
82230;SDS011;71832;45.138;9.816;2023-08-07T05:04:09;0.60;;;0.60;;
82230;SDS011;71832;45.138;9.816;2023-08-07T05:06:37;1.90;;;1.02;;
82230;SDS011;71832;45.138;9.816;2023-08-07T05:09:05;2.35;;;0.70;;
82230;SDS011;71832;45.138;9.816;2023-08-07T05:11:32;0.90;;;0.70;;
82230;SDS011;71832;45.138;9.816;2023-08-07T05:14:01;0.70;;;0.70;;
82230;SDS011;71832;45.138;9.816;2023-08-07T05:16:29;1.25;;;0.60;;
82230;SDS011;71832;45.138;9.816;2023-08-07T05:18:56;0.60;;;0.60;;
82230;SDS011;71832;45.138;9.816;2023-08-07T05:21:23;0.90;;;0.63;;
82230;SDS011;71832;45.138;9.816;2023-08-07T05:23:51;1.10;;;0.60;;
82230;SDS011;71832;45.138;9.816;2023-08-07T05:26:21;0.57;;;0.57;;
82230;SDS011;71832;45.138;9.816;2023-08-07T05:28:49;0.60;;;0.60;;
82230;SDS011;71832;45.138;9.816;2023-08-07T05:31:16;1.42;;;0.52;;
82230;SDS011;71832;45.138;9.816;2023-08-07T05:33:43;1.13;;;0.60;;
82230;SDS011;71832;45.138;9.816;2023-08-07T05:36:11;0.70;;;0.70;;
82230;SDS011;71832;45.138;9.816;2023-08-07T05:38:39;1.15;;;0.75;;
82230;SDS011;71832;45.138;9.816;2023-08-07T05:41:08;0.90;;;0.60;;
82230;SDS011;71832;45.138;9.816;2023-08-07T05:43:37;1.88;;;0.90;;
82230;SDS011;71832;45.138;9.816;2023-08-07T05:46:05;0.75;;;0.63;;
82230;SDS011;71832;45.138;9.816;2023-08-07T05:48:33;0.80;;;0.80;;
82230;SDS011;71832;45.138;9.816;2023-08-07T05:51:01;1.23;;;0.80;;
82230;SDS011;71832;45.138;9.816;2023-08-07T05:53:29;1.25;;;0.70;;
82230;SDS011;71832;45.138;9.816;2023-08-07T05:55:57;3.00;;;0.57;;
82230;SDS011;71832;45.138;9.816;2023-08-07T05:58:25;0.70;;;0.70;;
82230;SDS011;71832;45.138;9.816;2023-08-07T06:00:53;0.80;;;0.70;;
82230;SDS011;71832;45.138;9.816;2023-08-07T06:03:21;1.02;;;0.80;;
82230;SDS011;71832;45.138;9.816;2023-08-07T06:05:50;2.22;;;1.00;;
82230;SDS011;71832;45.138;9.816;2023-08-07T06:08:18;0.68;;;0.68;;
82230;SDS011;71832;45.138;9.816;2023-08-07T06:10:47;1.27;;;0.60;;
82230;SDS011;71832;45.138;9.816;2023-08-07T06:13:15;0.50;;;0.50;;
82230;SDS011;71832;45.138;9.816;2023-08-07T06:15:44;0.50;;;0.50;;
82230;SDS011;71832;45.138;9.816;2023-08-07T06:18:12;1.17;;;0.70;;
82230;SDS011;71832;45.138;9.816;2023-08-07T06:20:41;0.83;;;0.70;;
82230;SDS011;71832;45.138;9.816;2023-08-07T06:23:08;0.77;;;0.57;;
82230;SDS011;71832;45.138;9.816;2023-08-07T06:25:37;0.70;;;0.60;;
82230;SDS011;71832;45.138;9.816;2023-08-07T06:28:06;2.90;;;0.90;;
82230;SDS011;71832;45.138;9.816;2023-08-07T06:30:35;1.52;;;0.70;;
82230;SDS011;71832;45.138;9.816;2023-08-07T06:33:03;1.10;;;0.60;;
82230;SDS011;71832;45.138;9.816;2023-08-07T06:35:37;3.25;;;0.90;;
82230;SDS011;71832;45.138;9.816;2023-08-07T06:38:06;2.70;;;1.20;;
82230;SDS011;71832;45.138;9.816;2023-08-07T06:40:35;2.22;;;1.10;;
82230;SDS011;71832;45.138;9.816;2023-08-07T06:43:04;6.10;;;1.50;;
82230;SDS011;71832;45.138;9.816;2023-08-07T06:45:33;6.07;;;1.73;;
82230;SDS011;71832;45.138;9.816;2023-08-07T06:48:02;6.07;;;2.00;;
82230;SDS011;71832;45.138;9.816;2023-08-07T06:50:31;3.95;;;1.50;;
82230;SDS011;71832;45.138;9.816;2023-08-07T06:52:59;5.03;;;1.27;;
82230;SDS011;71832;45.138;9.816;2023-08-07T06:55:28;2.13;;;0.93;;
82230;SDS011;71832;45.138;9.816;2023-08-07T06:57:57;2.58;;;0.90;;
82230;SDS011;71832;45.138;9.816;2023-08-07T07:00:26;1.73;;;0.80;;
82230;SDS011;71832;45.138;9.816;2023-08-07T07:02:55;0.80;;;0.50;;
82230;SDS011;71832;45.138;9.816;2023-08-07T07:05:23;3.97;;;1.05;;
82230;SDS011;71832;45.138;9.816;2023-08-07T07:07:52;1.95;;;0.80;;
82230;SDS011;71832;45.138;9.816;2023-08-07T07:10:21;0.75;;;0.50;;
82230;SDS011;71832;45.138;9.816;2023-08-07T07:12:49;2.35;;;0.70;;
82230;SDS011;71832;45.138;9.816;2023-08-07T07:15:18;1.00;;;0.52;;
82230;SDS011;71832;45.138;9.816;2023-08-07T07:17:47;1.42;;;0.60;;
82230;SDS011;71832;45.138;9.816;2023-08-07T07:20:15;1.17;;;0.65;;
82230;SDS011;71832;45.138;9.816;2023-08-07T07:22:44;1.13;;;0.90;;
82230;SDS011;71832;45.138;9.816;2023-08-07T07:25:12;2.83;;;0.90;;
82230;SDS011;71832;45.138;9.816;2023-08-07T07:27:41;2.50;;;0.90;;
82230;SDS011;71832;45.138;9.816;2023-08-07T07:30:10;6.88;;;1.10;;
82230;SDS011;71832;45.138;9.816;2023-08-07T07:32:38;3.03;;;0.90;;
82230;SDS011;71832;45.138;9.816;2023-08-07T07:35:07;1.27;;;0.68;;
82230;SDS011;71832;45.138;9.816;2023-08-07T07:37:36;1.45;;;0.90;;
82230;SDS011;71832;45.138;9.816;2023-08-07T07:40:05;6.22;;;0.75;;
82230;SDS011;71832;45.138;9.816;2023-08-07T07:42:34;0.82;;;0.57;;
82230;SDS011;71832;45.138;9.816;2023-08-07T07:45:01;1.00;;;0.70;;
82230;SDS011;71832;45.138;9.816;2023-08-07T07:47:29;2.25;;;0.70;;
82230;SDS011;71832;45.138;9.816;2023-08-07T07:50:08;1.05;;;0.70;;
82230;SDS011;71832;45.138;9.816;2023-08-07T07:52:38;3.33;;;0.85;;
82230;SDS011;71832;45.138;9.816;2023-08-07T07:55:07;0.55;;;0.47;;
82230;SDS011;71832;45.138;9.816;2023-08-07T07:57:36;4.22;;;0.95;;
82230;SDS011;71832;45.138;9.816;2023-08-07T08:00:05;1.65;;;0.70;;
82230;SDS011;71832;45.138;9.816;2023-08-07T08:02:36;0.70;;;0.50;;
82230;SDS011;71832;45.138;9.816;2023-08-07T08:05:05;2.17;;;0.50;;
82230;SDS011;71832;45.138;9.816;2023-08-07T08:07:34;0.50;;;0.50;;
82230;SDS011;71832;45.138;9.816;2023-08-07T08:10:02;1.20;;;0.52;;
82230;SDS011;71832;45.138;9.816;2023-08-07T08:12:33;0.60;;;0.60;;
82230;SDS011;71832;45.138;9.816;2023-08-07T08:15:02;5.28;;;0.98;;
82230;SDS011;71832;45.138;9.816;2023-08-07T08:17:31;0.82;;;0.50;;
82230;SDS011;71832;45.138;9.816;2023-08-07T08:20:00;0.90;;;0.70;;
82230;SDS011;71832;45.138;9.816;2023-08-07T08:22:28;1.40;;;0.70;;
82230;SDS011;71832;45.138;9.816;2023-08-07T08:24:56;2.70;;;0.70;;
82230;SDS011;71832;45.138;9.816;2023-08-07T08:27:25;0.55;;;0.40;;
82230;SDS011;71832;45.138;9.816;2023-08-07T08:29:54;1.83;;;0.70;;
82230;SDS011;71832;45.138;9.816;2023-08-07T08:32:21;0.90;;;0.50;;
82230;SDS011;71832;45.138;9.816;2023-08-07T08:34:49;1.08;;;0.50;;
82230;SDS011;71832;45.138;9.816;2023-08-07T08:37:18;0.63;;;0.57;;
82230;SDS011;71832;45.138;9.816;2023-08-07T08:39:46;1.20;;;0.50;;
82230;SDS011;71832;45.138;9.816;2023-08-07T08:42:14;2.38;;;0.55;;
82230;SDS011;71832;45.138;9.816;2023-08-07T08:44:46;2.17;;;0.60;;
82230;SDS011;71832;45.138;9.816;2023-08-07T08:47:18;0.60;;;0.55;;
82230;SDS011;71832;45.138;9.816;2023-08-07T08:49:51;1.48;;;0.70;;
82230;SDS011;71832;45.138;9.816;2023-08-07T08:52:28;1.02;;;0.60;;
82230;SDS011;71832;45.138;9.816;2023-08-07T08:54:58;0.60;;;0.60;;
82230;SDS011;71832;45.138;9.816;2023-08-07T08:57:27;0.73;;;0.73;;
82230;SDS011;71832;45.138;9.816;2023-08-07T08:59:56;2.10;;;0.70;;
82230;SDS011;71832;45.138;9.816;2023-08-07T09:02:25;0.50;;;0.40;;
82230;SDS011;71832;45.138;9.816;2023-08-07T09:04:53;2.20;;;0.70;;
82230;SDS011;71832;45.138;9.816;2023-08-07T09:07:21;4.20;;;0.82;;
82230;SDS011;71832;45.138;9.816;2023-08-07T09:09:50;0.43;;;0.43;;
82230;SDS011;71832;45.138;9.816;2023-08-07T09:12:20;1.17;;;0.50;;
82230;SDS011;71832;45.138;9.816;2023-08-07T09:14:54;1.10;;;0.50;;
82230;SDS011;71832;45.138;9.816;2023-08-07T09:17:24;1.10;;;0.50;;
82230;SDS011;71832;45.138;9.816;2023-08-07T09:19:55;5.07;;;0.82;;
82230;SDS011;71832;45.138;9.816;2023-08-07T09:22:23;0.80;;;0.47;;
82230;SDS011;71832;45.138;9.816;2023-08-07T09:24:51;1.13;;;0.70;;
82230;SDS011;71832;45.138;9.816;2023-08-07T09:27:18;0.77;;;0.50;;
82230;SDS011;71832;45.138;9.816;2023-08-07T09:29:47;1.10;;;0.40;;
82230;SDS011;71832;45.138;9.816;2023-08-07T09:32:15;0.68;;;0.40;;
82230;SDS011;71832;45.138;9.816;2023-08-07T09:34:44;0.63;;;0.60;;
82230;SDS011;71832;45.138;9.816;2023-08-07T09:37:13;3.25;;;0.60;;
82230;SDS011;71832;45.138;9.816;2023-08-07T09:39:40;0.60;;;0.60;;
82230;SDS011;71832;45.138;9.816;2023-08-07T09:42:17;0.75;;;0.68;;
82230;SDS011;71832;45.138;9.816;2023-08-07T09:44:45;0.95;;;0.40;;
82230;SDS011;71832;45.138;9.816;2023-08-07T09:47:15;1.38;;;0.50;;
82230;SDS011;71832;45.138;9.816;2023-08-07T09:49:44;0.55;;;0.55;;
82230;SDS011;71832;45.138;9.816;2023-08-07T09:52:13;3.03;;;0.70;;
82230;SDS011;71832;45.138;9.816;2023-08-07T09:54:41;1.33;;;0.68;;
82230;SDS011;71832;45.138;9.816;2023-08-07T09:57:09;0.93;;;0.88;;
82230;SDS011;71832;45.138;9.816;2023-08-07T09:59:37;0.40;;;0.40;;
82230;SDS011;71832;45.138;9.816;2023-08-07T10:02:05;1.88;;;0.82;;
82230;SDS011;71832;45.138;9.816;2023-08-07T10:04:34;1.55;;;0.60;;
82230;SDS011;71832;45.138;9.816;2023-08-07T10:07:01;3.70;;;0.60;;
82230;SDS011;71832;45.138;9.816;2023-08-07T10:09:29;2.55;;;1.20;;
82230;SDS011;71832;45.138;9.816;2023-08-07T10:11:58;0.88;;;0.68;;
82230;SDS011;71832;45.138;9.816;2023-08-07T10:14:26;0.70;;;0.52;;
82230;SDS011;71832;45.138;9.816;2023-08-07T10:16:55;0.77;;;0.40;;
82230;SDS011;71832;45.138;9.816;2023-08-07T10:19:23;1.10;;;0.80;;
82230;SDS011;71832;45.138;9.816;2023-08-07T10:21:51;0.60;;;0.60;;
82230;SDS011;71832;45.138;9.816;2023-08-07T10:24:20;0.60;;;0.60;;
82230;SDS011;71832;45.138;9.816;2023-08-07T10:26:50;0.75;;;0.50;;
82230;SDS011;71832;45.138;9.816;2023-08-07T10:29:19;1.50;;;1.00;;
82230;SDS011;71832;45.138;9.816;2023-08-07T10:31:49;0.68;;;0.60;;
82230;SDS011;71832;45.138;9.816;2023-08-07T10:34:18;1.40;;;0.47;;
82230;SDS011;71832;45.138;9.816;2023-08-07T10:36:47;1.25;;;0.50;;
82230;SDS011;71832;45.138;9.816;2023-08-07T10:39:15;2.33;;;1.30;;
82230;SDS011;71832;45.138;9.816;2023-08-07T10:41:45;1.08;;;0.70;;
82230;SDS011;71832;45.138;9.816;2023-08-07T10:46:51;1.52;;;0.90;;
82230;SDS011;71832;45.138;9.816;2023-08-07T10:49:40;0.98;;;0.65;;
82230;SDS011;71832;45.138;9.816;2023-08-07T10:52:12;1.13;;;0.50;;
82230;SDS011;71832;45.138;9.816;2023-08-07T10:54:46;0.60;;;0.60;;
82230;SDS011;71832;45.138;9.816;2023-08-07T10:57:17;3.80;;;0.70;;
82230;SDS011;71832;45.138;9.816;2023-08-07T11:02:28;1.05;;;0.80;;
82230;SDS011;71832;45.138;9.816;2023-08-07T11:04:57;0.80;;;0.60;;
82230;SDS011;71832;45.138;9.816;2023-08-07T11:07:26;0.68;;;0.50;;
82230;SDS011;71832;45.138;9.816;2023-08-07T11:09:55;2.50;;;0.70;;
82230;SDS011;71832;45.138;9.816;2023-08-07T11:12:25;1.02;;;0.50;;
82230;SDS011;71832;45.138;9.816;2023-08-07T11:14:55;0.57;;;0.52;;
82230;SDS011;71832;45.138;9.816;2023-08-07T11:17:24;1.25;;;0.70;;
82230;SDS011;71832;45.138;9.816;2023-08-07T11:19:53;0.77;;;0.75;;
82230;SDS011;71832;45.138;9.816;2023-08-07T11:22:22;1.27;;;0.50;;
82230;SDS011;71832;45.138;9.816;2023-08-07T11:24:50;0.40;;;0.40;;
82230;SDS011;71832;45.138;9.816;2023-08-07T11:27:21;1.15;;;0.52;;
82230;SDS011;71832;45.138;9.816;2023-08-07T11:29:49;2.35;;;0.70;;
82230;SDS011;71832;45.138;9.816;2023-08-07T11:32:18;0.95;;;0.60;;
82230;SDS011;71832;45.138;9.816;2023-08-07T11:34:48;0.63;;;0.57;;
82230;SDS011;71832;45.138;9.816;2023-08-07T11:37:16;0.38;;;0.38;;
82230;SDS011;71832;45.138;9.816;2023-08-07T11:39:45;0.50;;;0.50;;
82230;SDS011;71832;45.138;9.816;2023-08-07T11:42:13;0.75;;;0.65;;
82230;SDS011;71832;45.138;9.816;2023-08-07T11:44:41;0.63;;;0.63;;
82230;SDS011;71832;45.138;9.816;2023-08-07T11:47:09;0.57;;;0.50;;
82230;SDS011;71832;45.138;9.816;2023-08-07T11:49:37;0.50;;;0.50;;
82230;SDS011;71832;45.138;9.816;2023-08-07T11:52:05;0.60;;;0.60;;
82230;SDS011;71832;45.138;9.816;2023-08-07T11:54:33;0.55;;;0.50;;
82230;SDS011;71832;45.138;9.816;2023-08-07T11:57:01;1.15;;;0.60;;
82230;SDS011;71832;45.138;9.816;2023-08-07T11:59:29;0.70;;;0.70;;
82230;SDS011;71832;45.138;9.816;2023-08-07T12:01:57;0.80;;;0.80;;
82230;SDS011;71832;45.138;9.816;2023-08-07T12:04:25;1.05;;;0.85;;
82230;SDS011;71832;45.138;9.816;2023-08-07T12:06:57;0.57;;;0.57;;
82230;SDS011;71832;45.138;9.816;2023-08-07T12:09:25;0.60;;;0.60;;
82230;SDS011;71832;45.138;9.816;2023-08-07T12:11:55;0.50;;;0.50;;
82230;SDS011;71832;45.138;9.816;2023-08-07T12:14:28;0.47;;;0.47;;
82230;SDS011;71832;45.138;9.816;2023-08-07T12:16:57;0.57;;;0.57;;
82230;SDS011;71832;45.138;9.816;2023-08-07T12:19:38;0.80;;;0.60;;
82230;SDS011;71832;45.138;9.816;2023-08-07T12:22:10;0.50;;;0.50;;
82230;SDS011;71832;45.138;9.816;2023-08-07T12:24:40;0.73;;;0.70;;
82230;SDS011;71832;45.138;9.816;2023-08-07T12:27:08;0.40;;;0.38;;
82230;SDS011;71832;45.138;9.816;2023-08-07T12:29:36;2.53;;;0.77;;
82230;SDS011;71832;45.138;9.816;2023-08-07T12:32:05;2.08;;;0.88;;
82230;SDS011;71832;45.138;9.816;2023-08-07T12:34:33;0.60;;;0.60;;
82230;SDS011;71832;45.138;9.816;2023-08-07T12:37:01;0.68;;;0.60;;
82230;SDS011;71832;45.138;9.816;2023-08-07T12:39:29;1.48;;;0.57;;
82230;SDS011;71832;45.138;9.816;2023-08-07T12:41:58;1.60;;;0.73;;
82230;SDS011;71832;45.138;9.816;2023-08-07T12:44:27;0.80;;;0.80;;
82230;SDS011;71832;45.138;9.816;2023-08-07T12:46:55;1.00;;;0.57;;
82230;SDS011;71832;45.138;9.816;2023-08-07T12:49:23;1.33;;;0.55;;
82230;SDS011;71832;45.138;9.816;2023-08-07T12:51:52;0.52;;;0.52;;
82230;SDS011;71832;45.138;9.816;2023-08-07T12:54:22;0.68;;;0.50;;
82230;SDS011;71832;45.138;9.816;2023-08-07T12:56:50;0.77;;;0.60;;
82230;SDS011;71832;45.138;9.816;2023-08-07T12:59:20;1.55;;;0.60;;
82230;SDS011;71832;45.138;9.816;2023-08-07T13:01:48;0.70;;;0.70;;
82230;SDS011;71832;45.138;9.816;2023-08-07T13:04:19;0.55;;;0.55;;
82230;SDS011;71832;45.138;9.816;2023-08-07T13:06:47;0.57;;;0.57;;
82230;SDS011;71832;45.138;9.816;2023-08-07T13:09:16;0.60;;;0.60;;
82230;SDS011;71832;45.138;9.816;2023-08-07T13:11:44;4.40;;;1.00;;
82230;SDS011;71832;45.138;9.816;2023-08-07T13:14:13;0.63;;;0.52;;
82230;SDS011;71832;45.138;9.816;2023-08-07T13:16:40;1.02;;;0.82;;
82230;SDS011;71832;45.138;9.816;2023-08-07T13:19:09;0.60;;;0.60;;
82230;SDS011;71832;45.138;9.816;2023-08-07T13:21:38;0.93;;;0.68;;
82230;SDS011;71832;45.138;9.816;2023-08-07T13:24:06;0.70;;;0.70;;
82230;SDS011;71832;45.138;9.816;2023-08-07T13:26:35;1.38;;;0.70;;
82230;SDS011;71832;45.138;9.816;2023-08-07T13:29:04;1.05;;;0.95;;
82230;SDS011;71832;45.138;9.816;2023-08-07T13:31:33;0.88;;;0.60;;
82230;SDS011;71832;45.138;9.816;2023-08-07T13:34:02;1.05;;;0.90;;
82230;SDS011;71832;45.138;9.816;2023-08-07T13:36:35;2.05;;;0.80;;
82230;SDS011;71832;45.138;9.816;2023-08-07T13:39:04;2.05;;;0.90;;
82230;SDS011;71832;45.138;9.816;2023-08-07T13:41:32;2.00;;;0.75;;
82230;SDS011;71832;45.138;9.816;2023-08-07T13:44:00;0.80;;;0.80;;
82230;SDS011;71832;45.138;9.816;2023-08-07T13:46:29;0.88;;;0.70;;
82230;SDS011;71832;45.138;9.816;2023-08-07T13:48:57;0.70;;;0.70;;
82230;SDS011;71832;45.138;9.816;2023-08-07T13:51:25;1.05;;;0.70;;
82230;SDS011;71832;45.138;9.816;2023-08-07T13:53:54;1.38;;;0.73;;
82230;SDS011;71832;45.138;9.816;2023-08-07T13:56:22;0.70;;;0.70;;
82230;SDS011;71832;45.138;9.816;2023-08-07T13:58:51;0.90;;;0.90;;
82230;SDS011;71832;45.138;9.816;2023-08-07T14:01:20;0.82;;;0.77;;
82230;SDS011;71832;45.138;9.816;2023-08-07T14:03:49;0.88;;;0.88;;
82230;SDS011;71832;45.138;9.816;2023-08-07T14:06:17;0.70;;;0.70;;
82230;SDS011;71832;45.138;9.816;2023-08-07T14:08:46;0.70;;;0.70;;
82230;SDS011;71832;45.138;9.816;2023-08-07T14:11:14;2.22;;;0.80;;
82230;SDS011;71832;45.138;9.816;2023-08-07T14:13:42;2.88;;;0.80;;
82230;SDS011;71832;45.138;9.816;2023-08-07T14:16:11;1.02;;;0.80;;
82230;SDS011;71832;45.138;9.816;2023-08-07T14:18:39;3.85;;;0.95;;
82230;SDS011;71832;45.138;9.816;2023-08-07T14:21:08;1.00;;;0.90;;
82230;SDS011;71832;45.138;9.816;2023-08-07T14:23:36;0.77;;;0.77;;
82230;SDS011;71832;45.138;9.816;2023-08-07T14:26:04;1.38;;;0.60;;
82230;SDS011;71832;45.138;9.816;2023-08-07T14:28:32;1.23;;;0.80;;
82230;SDS011;71832;45.138;9.816;2023-08-07T14:31:05;0.80;;;0.80;;
82230;SDS011;71832;45.138;9.816;2023-08-07T14:33:35;1.00;;;0.90;;
82230;SDS011;71832;45.138;9.816;2023-08-07T14:36:03;2.08;;;1.17;;
82230;SDS011;71832;45.138;9.816;2023-08-07T14:38:32;0.70;;;0.70;;
82230;SDS011;71832;45.138;9.816;2023-08-07T14:41:00;2.10;;;1.48;;
82230;SDS011;71832;45.138;9.816;2023-08-07T14:43:29;0.73;;;0.70;;
82230;SDS011;71832;45.138;9.816;2023-08-07T14:45:58;0.88;;;0.80;;
82230;SDS011;71832;45.138;9.816;2023-08-07T14:48:27;1.77;;;0.60;;
82230;SDS011;71832;45.138;9.816;2023-08-07T14:50:55;2.03;;;0.90;;
82230;SDS011;71832;45.138;9.816;2023-08-07T14:53:24;1.48;;;1.05;;
82230;SDS011;71832;45.138;9.816;2023-08-07T14:55:53;6.65;;;1.83;;
82230;SDS011;71832;45.138;9.816;2023-08-07T14:58:22;3.30;;;1.00;;
82230;SDS011;71832;45.138;9.816;2023-08-07T15:00:53;2.80;;;0.65;;
82230;SDS011;71832;45.138;9.816;2023-08-07T15:03:22;1.23;;;0.82;;
82230;SDS011;71832;45.138;9.816;2023-08-07T15:05:50;3.17;;;0.98;;